Big Spring, Illinois
Current Conditions -  °F | °C
As of 1:53 AM on Thursday 29 Jan 2015 (Local Time) from KMTO Reporting Station
Few Clouds Few Clouds  
Wind Chill: 31°   Ceiling: Unl
Heat Index: 39°   Visibility: 10mi
Dew Point: 29°   Wind: 15mph
Humidity: 67%   Direction: 180°S
Pressure: 29.79"   Gusts: NA
Location:  39.3144°N, 88.4504°W
Report Text: KMTO 290753Z AUTO 18013KT 10SM FEW090 04/M02 A2979 RMK AO2 PK WND 17027/0716 SLP093 T00391017
Loading
Personal Weather Stations






























Interactive Weather Map New forecast layout! Learn more

10-Day Weather Forecast

Advertisements
Track Severe Weather on mobile